sensor_id;sensor_type;location;lat;lon;timestamp;P1;durP1;ratioP1;P2;durP2;ratioP2
6249;SDS011;3158;52.148;11.568;2022-07-29T00:03:32;8.60;;;0.90;;
6249;SDS011;3158;52.148;11.568;2022-07-29T00:08:33;1.85;;;0.80;;
6249;SDS011;3158;52.148;11.568;2022-07-29T00:13:34;3.38;;;0.70;;
6249;SDS011;3158;52.148;11.568;2022-07-29T00:18:36;6.13;;;0.93;;
6249;SDS011;3158;52.148;11.568;2022-07-29T00:23:37;0.70;;;0.70;;
6249;SDS011;3158;52.148;11.568;2022-07-29T00:28:38;3.72;;;1.00;;
6249;SDS011;3158;52.148;11.568;2022-07-29T00:33:39;0.85;;;0.70;;
6249;SDS011;3158;52.148;11.568;2022-07-29T00:38:40;1.17;;;1.17;;
6249;SDS011;3158;52.148;11.568;2022-07-29T00:43:45;1.00;;;0.50;;
6249;SDS011;3158;52.148;11.568;2022-07-29T00:48:46;3.83;;;1.00;;
6249;SDS011;3158;52.148;11.568;2022-07-29T00:53:47;2.25;;;0.90;;
6249;SDS011;3158;52.148;11.568;2022-07-29T00:58:50;0.70;;;0.70;;
6249;SDS011;3158;52.148;11.568;2022-07-29T01:03:52;1.55;;;0.82;;
6249;SDS011;3158;52.148;11.568;2022-07-29T01:08:53;2.08;;;0.50;;
6249;SDS011;3158;52.148;11.568;2022-07-29T01:13:54;1.05;;;0.70;;
6249;SDS011;3158;52.148;11.568;2022-07-29T01:18:56;0.93;;;0.82;;
6249;SDS011;3158;52.148;11.568;2022-07-29T01:34:06;4.82;;;1.08;;
6249;SDS011;3158;52.148;11.568;2022-07-29T01:44:15;2.50;;;0.90;;
6249;SDS011;3158;52.148;11.568;2022-07-29T01:49:20;5.45;;;1.00;;
6249;SDS011;3158;52.148;11.568;2022-07-29T01:54:45;0.70;;;0.70;;
6249;SDS011;3158;52.148;11.568;2022-07-29T01:59:47;1.33;;;0.77;;
6249;SDS011;3158;52.148;11.568;2022-07-29T02:04:49;3.78;;;1.00;;
6249;SDS011;3158;52.148;11.568;2022-07-29T02:09:51;0.75;;;0.75;;
6249;SDS011;3158;52.148;11.568;2022-07-29T02:14:53;1.00;;;0.90;;
6249;SDS011;3158;52.148;11.568;2022-07-29T02:19:56;2.08;;;0.95;;
6249;SDS011;3158;52.148;11.568;2022-07-29T02:24:58;4.05;;;1.00;;
6249;SDS011;3158;52.148;11.568;2022-07-29T02:29:59;1.42;;;1.13;;
6249;SDS011;3158;52.148;11.568;2022-07-29T02:35:01;2.05;;;0.85;;
6249;SDS011;3158;52.148;11.568;2022-07-29T02:40:03;6.40;;;0.90;;
6249;SDS011;3158;52.148;11.568;2022-07-29T02:45:04;3.85;;;1.10;;
6249;SDS011;3158;52.148;11.568;2022-07-29T02:50:11;10.25;;;1.35;;
6249;SDS011;3158;52.148;11.568;2022-07-29T03:00:16;5.18;;;0.85;;
6249;SDS011;3158;52.148;11.568;2022-07-29T03:05:18;2.17;;;0.98;;
6249;SDS011;3158;52.148;11.568;2022-07-29T03:10:20;2.47;;;1.60;;
6249;SDS011;3158;52.148;11.568;2022-07-29T03:15:22;1.10;;;1.02;;
6249;SDS011;3158;52.148;11.568;2022-07-29T03:20:23;4.20;;;1.17;;
6249;SDS011;3158;52.148;11.568;2022-07-29T03:25:24;1.25;;;1.25;;
6249;SDS011;3158;52.148;11.568;2022-07-29T03:30:27;1.98;;;1.55;;
6249;SDS011;3158;52.148;11.568;2022-07-29T03:35:30;5.68;;;1.40;;
6249;SDS011;3158;52.148;11.568;2022-07-29T03:45:38;4.95;;;1.75;;
6249;SDS011;3158;52.148;11.568;2022-07-29T03:50:41;3.10;;;1.65;;
6249;SDS011;3158;52.148;11.568;2022-07-29T03:55:44;4.95;;;1.65;;
6249;SDS011;3158;52.148;11.568;2022-07-29T04:00:46;2.60;;;1.80;;
6249;SDS011;3158;52.148;11.568;2022-07-29T04:06:04;2.95;;;2.42;;
6249;SDS011;3158;52.148;11.568;2022-07-29T04:11:08;6.47;;;2.45;;
6249;SDS011;3158;52.148;11.568;2022-07-29T04:16:09;3.08;;;2.03;;
6249;SDS011;3158;52.148;11.568;2022-07-29T04:21:10;4.85;;;1.95;;
6249;SDS011;3158;52.148;11.568;2022-07-29T04:26:11;3.00;;;2.25;;
6249;SDS011;3158;52.148;11.568;2022-07-29T04:31:12;2.08;;;1.75;;
6249;SDS011;3158;52.148;11.568;2022-07-29T04:36:13;2.05;;;1.90;;
6249;SDS011;3158;52.148;11.568;2022-07-29T04:41:14;4.28;;;2.22;;
6249;SDS011;3158;52.148;11.568;2022-07-29T04:46:16;5.60;;;2.20;;
6249;SDS011;3158;52.148;11.568;2022-07-29T04:51:17;4.63;;;2.40;;
6249;SDS011;3158;52.148;11.568;2022-07-29T04:56:18;2.20;;;2.20;;
6249;SDS011;3158;52.148;11.568;2022-07-29T05:01:19;2.67;;;2.58;;
6249;SDS011;3158;52.148;11.568;2022-07-29T05:06:20;5.28;;;2.95;;
6249;SDS011;3158;52.148;11.568;2022-07-29T05:11:21;5.07;;;2.92;;
6249;SDS011;3158;52.148;11.568;2022-07-29T05:16:22;2.90;;;2.63;;
6249;SDS011;3158;52.148;11.568;2022-07-29T05:21:23;6.18;;;3.70;;
6249;SDS011;3158;52.148;11.568;2022-07-29T05:26:24;8.07;;;3.65;;
6249;SDS011;3158;52.148;11.568;2022-07-29T05:31:25;5.63;;;3.50;;
6249;SDS011;3158;52.148;11.568;2022-07-29T05:36:26;6.93;;;3.90;;
6249;SDS011;3158;52.148;11.568;2022-07-29T05:41:27;4.00;;;2.83;;
6249;SDS011;3158;52.148;11.568;2022-07-29T05:46:29;6.63;;;2.85;;
6249;SDS011;3158;52.148;11.568;2022-07-29T05:51:30;7.47;;;2.83;;
6249;SDS011;3158;52.148;11.568;2022-07-29T05:56:31;2.58;;;2.38;;
6249;SDS011;3158;52.148;11.568;2022-07-29T06:01:32;4.10;;;2.60;;
6249;SDS011;3158;52.148;11.568;2022-07-29T06:06:33;2.55;;;2.35;;
6249;SDS011;3158;52.148;11.568;2022-07-29T06:11:35;2.65;;;2.25;;
6249;SDS011;3158;52.148;11.568;2022-07-29T06:16:36;2.47;;;2.25;;
6249;SDS011;3158;52.148;11.568;2022-07-29T06:21:41;3.85;;;2.30;;
6249;SDS011;3158;52.148;11.568;2022-07-29T06:26:42;3.95;;;2.70;;
6249;SDS011;3158;52.148;11.568;2022-07-29T06:31:43;3.65;;;2.38;;
6249;SDS011;3158;52.148;11.568;2022-07-29T06:36:44;2.40;;;2.20;;
6249;SDS011;3158;52.148;11.568;2022-07-29T06:41:46;5.18;;;2.15;;
6249;SDS011;3158;52.148;11.568;2022-07-29T06:46:49;4.47;;;2.38;;
6249;SDS011;3158;52.148;11.568;2022-07-29T06:51:52;6.70;;;2.53;;
6249;SDS011;3158;52.148;11.568;2022-07-29T06:56:53;4.00;;;2.15;;
6249;SDS011;3158;52.148;11.568;2022-07-29T07:01:54;2.92;;;2.30;;
6249;SDS011;3158;52.148;11.568;2022-07-29T07:06:55;3.38;;;2.13;;
6249;SDS011;3158;52.148;11.568;2022-07-29T07:11:56;5.10;;;2.70;;
6249;SDS011;3158;52.148;11.568;2022-07-29T07:16:57;5.97;;;3.10;;
6249;SDS011;3158;52.148;11.568;2022-07-29T07:22:00;4.15;;;2.83;;
6249;SDS011;3158;52.148;11.568;2022-07-29T07:27:01;5.50;;;2.90;;
6249;SDS011;3158;52.148;11.568;2022-07-29T07:32:02;2.80;;;2.60;;
6249;SDS011;3158;52.148;11.568;2022-07-29T07:37:03;5.47;;;2.47;;
6249;SDS011;3158;52.148;11.568;2022-07-29T07:42:04;3.72;;;3.05;;
6249;SDS011;3158;52.148;11.568;2022-07-29T07:47:05;4.15;;;2.72;;
6249;SDS011;3158;52.148;11.568;2022-07-29T07:52:06;5.05;;;2.88;;
6249;SDS011;3158;52.148;11.568;2022-07-29T07:57:07;7.40;;;3.70;;
6249;SDS011;3158;52.148;11.568;2022-07-29T08:02:08;5.72;;;3.80;;
6249;SDS011;3158;52.148;11.568;2022-07-29T08:07:10;9.18;;;4.03;;
6249;SDS011;3158;52.148;11.568;2022-07-29T08:12:11;9.30;;;3.35;;
6249;SDS011;3158;52.148;11.568;2022-07-29T08:17:12;4.32;;;3.47;;
6249;SDS011;3158;52.148;11.568;2022-07-29T08:22:13;10.07;;;3.85;;
6249;SDS011;3158;52.148;11.568;2022-07-29T08:27:14;13.63;;;4.95;;
6249;SDS011;3158;52.148;11.568;2022-07-29T08:32:15;5.63;;;3.63;;
6249;SDS011;3158;52.148;11.568;2022-07-29T08:37:16;4.32;;;3.35;;
6249;SDS011;3158;52.148;11.568;2022-07-29T08:42:18;5.78;;;3.72;;
6249;SDS011;3158;52.148;11.568;2022-07-29T08:47:19;5.45;;;3.05;;
6249;SDS011;3158;52.148;11.568;2022-07-29T08:52:20;6.93;;;3.58;;
6249;SDS011;3158;52.148;11.568;2022-07-29T08:57:21;3.47;;;2.78;;
6249;SDS011;3158;52.148;11.568;2022-07-29T09:02:23;8.93;;;3.20;;
6249;SDS011;3158;52.148;11.568;2022-07-29T09:07:25;4.85;;;3.25;;
6249;SDS011;3158;52.148;11.568;2022-07-29T09:12:26;8.02;;;4.10;;
6249;SDS011;3158;52.148;11.568;2022-07-29T09:17:47;7.57;;;3.42;;
6249;SDS011;3158;52.148;11.568;2022-07-29T09:22:49;7.55;;;3.35;;
6249;SDS011;3158;52.148;11.568;2022-07-29T09:27:52;7.25;;;3.63;;
6249;SDS011;3158;52.148;11.568;2022-07-29T09:32:54;6.88;;;3.10;;
6249;SDS011;3158;52.148;11.568;2022-07-29T09:37:55;6.38;;;3.00;;
6249;SDS011;3158;52.148;11.568;2022-07-29T09:42:56;3.63;;;2.70;;
6249;SDS011;3158;52.148;11.568;2022-07-29T09:47:58;2.63;;;2.53;;
6249;SDS011;3158;52.148;11.568;2022-07-29T09:53:02;5.65;;;2.33;;
6249;SDS011;3158;52.148;11.568;2022-07-29T09:58:17;3.63;;;1.70;;
6249;SDS011;3158;52.148;11.568;2022-07-29T10:03:19;2.08;;;1.83;;
6249;SDS011;3158;52.148;11.568;2022-07-29T10:08:24;5.88;;;1.67;;
6249;SDS011;3158;52.148;11.568;2022-07-29T10:13:30;5.22;;;1.92;;
6249;SDS011;3158;52.148;11.568;2022-07-29T10:18:32;3.22;;;1.73;;
6249;SDS011;3158;52.148;11.568;2022-07-29T10:23:33;3.58;;;1.77;;
6249;SDS011;3158;52.148;11.568;2022-07-29T10:28:35;4.68;;;1.35;;
6249;SDS011;3158;52.148;11.568;2022-07-29T10:33:40;2.05;;;1.30;;
6249;SDS011;3158;52.148;11.568;2022-07-29T10:38:51;1.65;;;1.55;;
6249;SDS011;3158;52.148;11.568;2022-07-29T10:49:12;2.78;;;1.30;;
6249;SDS011;3158;52.148;11.568;2022-07-29T10:54:14;3.92;;;1.20;;
6249;SDS011;3158;52.148;11.568;2022-07-29T11:09:43;1.67;;;0.90;;
6249;SDS011;3158;52.148;11.568;2022-07-29T11:20:30;2.88;;;1.02;;
6249;SDS011;3158;52.148;11.568;2022-07-29T11:25:14;2.20;;;0.98;;
6249;SDS011;3158;52.148;11.568;2022-07-29T11:30:17;2.28;;;1.10;;
6249;SDS011;3158;52.148;11.568;2022-07-29T11:35:19;5.43;;;1.17;;
6249;SDS011;3158;52.148;11.568;2022-07-29T11:40:21;1.65;;;0.93;;
6249;SDS011;3158;52.148;11.568;2022-07-29T11:45:23;2.35;;;1.08;;
6249;SDS011;3158;52.148;11.568;2022-07-29T11:55:29;1.75;;;0.88;;
6249;SDS011;3158;52.148;11.568;2022-07-29T12:00:36;2.70;;;1.02;;
6249;SDS011;3158;52.148;11.568;2022-07-29T12:05:44;9.32;;;1.38;;
6249;SDS011;3158;52.148;11.568;2022-07-29T12:10:46;1.75;;;1.10;;
6249;SDS011;3158;52.148;11.568;2022-07-29T12:15:54;3.70;;;1.00;;
6249;SDS011;3158;52.148;11.568;2022-07-29T12:20:57;4.13;;;1.10;;
6249;SDS011;3158;52.148;11.568;2022-07-29T12:26:08;1.02;;;0.95;;
6249;SDS011;3158;52.148;11.568;2022-07-29T12:31:13;1.00;;;1.00;;
6249;SDS011;3158;52.148;11.568;2022-07-29T12:36:15;2.83;;;1.13;;
6249;SDS011;3158;52.148;11.568;2022-07-29T12:41:16;3.42;;;1.30;;
6249;SDS011;3158;52.148;11.568;2022-07-29T12:46:19;1.67;;;0.88;;
6249;SDS011;3158;52.148;11.568;2022-07-29T12:51:34;1.75;;;0.95;;
6249;SDS011;3158;52.148;11.568;2022-07-29T12:56:43;1.42;;;1.20;;
6249;SDS011;3158;52.148;11.568;2022-07-29T13:01:45;1.15;;;1.05;;
6249;SDS011;3158;52.148;11.568;2022-07-29T13:06:49;1.42;;;1.17;;
6249;SDS011;3158;52.148;11.568;2022-07-29T13:11:58;1.00;;;1.00;;
6249;SDS011;3158;52.148;11.568;2022-07-29T13:22:13;2.33;;;1.10;;
6249;SDS011;3158;52.148;11.568;2022-07-29T13:27:18;1.70;;;1.10;;
6249;SDS011;3158;52.148;11.568;2022-07-29T13:32:20;2.47;;;1.42;;
6249;SDS011;3158;52.148;11.568;2022-07-29T13:37:21;1.58;;;1.20;;
6249;SDS011;3158;52.148;11.568;2022-07-29T13:42:22;3.90;;;1.17;;
6249;SDS011;3158;52.148;11.568;2022-07-29T13:47:24;1.75;;;1.15;;
6249;SDS011;3158;52.148;11.568;2022-07-29T13:52:26;2.45;;;1.10;;
6249;SDS011;3158;52.148;11.568;2022-07-29T13:57:27;1.70;;;1.17;;
6249;SDS011;3158;52.148;11.568;2022-07-29T14:02:28;2.83;;;1.02;;
6249;SDS011;3158;52.148;11.568;2022-07-29T14:07:29;3.88;;;1.58;;
6249;SDS011;3158;52.148;11.568;2022-07-29T14:12:30;1.40;;;1.08;;
6249;SDS011;3158;52.148;11.568;2022-07-29T14:17:31;2.00;;;1.30;;
6249;SDS011;3158;52.148;11.568;2022-07-29T14:22:32;1.30;;;0.95;;
6249;SDS011;3158;52.148;11.568;2022-07-29T14:27:33;2.92;;;1.17;;
6249;SDS011;3158;52.148;11.568;2022-07-29T14:32:34;1.08;;;1.08;;
6249;SDS011;3158;52.148;11.568;2022-07-29T14:37:36;2.67;;;1.10;;
6249;SDS011;3158;52.148;11.568;2022-07-29T14:42:37;3.55;;;1.40;;
6249;SDS011;3158;52.148;11.568;2022-07-29T14:47:39;1.55;;;0.80;;
6249;SDS011;3158;52.148;11.568;2022-07-29T14:52:41;1.33;;;1.27;;
6249;SDS011;3158;52.148;11.568;2022-07-29T14:57:42;3.65;;;1.00;;
6249;SDS011;3158;52.148;11.568;2022-07-29T15:02:43;2.03;;;1.50;;
6249;SDS011;3158;52.148;11.568;2022-07-29T15:07:44;1.63;;;1.00;;
6249;SDS011;3158;52.148;11.568;2022-07-29T15:12:45;2.78;;;1.00;;
6249;SDS011;3158;52.148;11.568;2022-07-29T15:17:46;2.70;;;1.13;;
6249;SDS011;3158;52.148;11.568;2022-07-29T15:22:48;1.25;;;1.15;;
6249;SDS011;3158;52.148;11.568;2022-07-29T15:27:49;1.40;;;1.10;;
6249;SDS011;3158;52.148;11.568;2022-07-29T15:32:50;2.35;;;0.93;;
6249;SDS011;3158;52.148;11.568;2022-07-29T15:37:51;1.98;;;1.50;;
6249;SDS011;3158;52.148;11.568;2022-07-29T15:42:52;1.00;;;1.00;;
6249;SDS011;3158;52.148;11.568;2022-07-29T15:47:53;2.05;;;1.00;;
6249;SDS011;3158;52.148;11.568;2022-07-29T15:52:54;1.83;;;1.20;;
6249;SDS011;3158;52.148;11.568;2022-07-29T15:57:55;1.58;;;1.27;;
6249;SDS011;3158;52.148;11.568;2022-07-29T16:02:56;1.33;;;1.25;;
6249;SDS011;3158;52.148;11.568;2022-07-29T16:07:57;5.07;;;1.17;;
6249;SDS011;3158;52.148;11.568;2022-07-29T16:12:59;1.42;;;1.42;;
6249;SDS011;3158;52.148;11.568;2022-07-29T16:18:00;1.15;;;1.10;;
6249;SDS011;3158;52.148;11.568;2022-07-29T16:23:02;1.38;;;1.30;;
6249;SDS011;3158;52.148;11.568;2022-07-29T16:28:03;4.00;;;1.33;;
6249;SDS011;3158;52.148;11.568;2022-07-29T16:33:04;1.25;;;1.25;;
6249;SDS011;3158;52.148;11.568;2022-07-29T16:38:06;1.30;;;1.20;;
6249;SDS011;3158;52.148;11.568;2022-07-29T16:43:07;2.33;;;1.10;;
6249;SDS011;3158;52.148;11.568;2022-07-29T16:48:08;1.90;;;1.55;;
6249;SDS011;3158;52.148;11.568;2022-07-29T16:53:09;2.28;;;1.15;;
6249;SDS011;3158;52.148;11.568;2022-07-29T16:58:10;2.00;;;1.30;;
6249;SDS011;3158;52.148;11.568;2022-07-29T17:03:11;2.17;;;1.20;;
6249;SDS011;3158;52.148;11.568;2022-07-29T17:08:12;1.77;;;1.67;;
6249;SDS011;3158;52.148;11.568;2022-07-29T17:13:13;1.95;;;1.30;;
6249;SDS011;3158;52.148;11.568;2022-07-29T17:18:14;7.38;;;1.50;;
6249;SDS011;3158;52.148;11.568;2022-07-29T17:23:16;51.92;;;3.25;;
6249;SDS011;3158;52.148;11.568;2022-07-29T17:28:17;2.00;;;1.20;;
6249;SDS011;3158;52.148;11.568;2022-07-29T17:33:18;1.60;;;1.50;;
6249;SDS011;3158;52.148;11.568;2022-07-29T17:38:19;2.90;;;1.33;;
6249;SDS011;3158;52.148;11.568;2022-07-29T17:43:20;1.75;;;1.20;;
6249;SDS011;3158;52.148;11.568;2022-07-29T17:48:21;2.67;;;1.40;;
6249;SDS011;3158;52.148;11.568;2022-07-29T17:53:22;1.88;;;1.35;;
6249;SDS011;3158;52.148;11.568;2022-07-29T17:58:23;5.15;;;1.75;;
6249;SDS011;3158;52.148;11.568;2022-07-29T18:03:25;4.35;;;1.80;;
6249;SDS011;3158;52.148;11.568;2022-07-29T18:08:26;2.40;;;1.60;;
6249;SDS011;3158;52.148;11.568;2022-07-29T18:13:28;1.88;;;1.58;;
6249;SDS011;3158;52.148;11.568;2022-07-29T18:18:29;1.50;;;1.48;;
6249;SDS011;3158;52.148;11.568;2022-07-29T18:23:30;1.85;;;1.75;;
6249;SDS011;3158;52.148;11.568;2022-07-29T18:28:31;1.92;;;1.80;;
6249;SDS011;3158;52.148;11.568;2022-07-29T18:33:32;6.97;;;1.73;;
6249;SDS011;3158;52.148;11.568;2022-07-29T18:38:33;3.88;;;1.85;;
6249;SDS011;3158;52.148;11.568;2022-07-29T18:43:34;3.70;;;1.60;;
6249;SDS011;3158;52.148;11.568;2022-07-29T18:48:35;2.03;;;1.88;;
6249;SDS011;3158;52.148;11.568;2022-07-29T18:53:36;1.63;;;1.52;;
6249;SDS011;3158;52.148;11.568;2022-07-29T18:58:37;2.35;;;1.50;;
6249;SDS011;3158;52.148;11.568;2022-07-29T19:03:38;3.65;;;1.95;;
6249;SDS011;3158;52.148;11.568;2022-07-29T19:08:40;5.25;;;1.95;;
6249;SDS011;3158;52.148;11.568;2022-07-29T19:13:41;3.22;;;2.10;;
6249;SDS011;3158;52.148;11.568;2022-07-29T19:18:42;2.53;;;1.85;;
6249;SDS011;3158;52.148;11.568;2022-07-29T19:23:43;2.08;;;1.98;;
6249;SDS011;3158;52.148;11.568;2022-07-29T19:28:45;2.75;;;1.70;;
6249;SDS011;3158;52.148;11.568;2022-07-29T19:33:46;1.55;;;1.55;;
6249;SDS011;3158;52.148;11.568;2022-07-29T19:38:47;2.15;;;1.98;;
6249;SDS011;3158;52.148;11.568;2022-07-29T19:43:48;3.30;;;1.85;;
6249;SDS011;3158;52.148;11.568;2022-07-29T19:48:49;3.08;;;1.85;;
6249;SDS011;3158;52.148;11.568;2022-07-29T19:53:51;2.17;;;2.08;;
6249;SDS011;3158;52.148;11.568;2022-07-29T19:58:52;1.73;;;1.73;;
6249;SDS011;3158;52.148;11.568;2022-07-29T20:03:54;4.13;;;2.17;;
6249;SDS011;3158;52.148;11.568;2022-07-29T20:08:55;2.28;;;2.05;;
6249;SDS011;3158;52.148;11.568;2022-07-29T20:13:56;2.08;;;1.98;;
6249;SDS011;3158;52.148;11.568;2022-07-29T20:18:57;3.05;;;1.67;;
6249;SDS011;3158;52.148;11.568;2022-07-29T20:23:58;1.75;;;1.70;;
6249;SDS011;3158;52.148;11.568;2022-07-29T20:29:01;2.20;;;2.00;;
6249;SDS011;3158;52.148;11.568;2022-07-29T20:34:04;2.10;;;1.98;;
6249;SDS011;3158;52.148;11.568;2022-07-29T20:39:05;6.35;;;2.25;;
6249;SDS011;3158;52.148;11.568;2022-07-29T20:44:06;1.75;;;1.58;;
6249;SDS011;3158;52.148;11.568;2022-07-29T20:49:07;4.85;;;1.90;;
6249;SDS011;3158;52.148;11.568;2022-07-29T20:54:08;5.47;;;2.10;;
6249;SDS011;3158;52.148;11.568;2022-07-29T20:59:09;2.80;;;1.73;;
6249;SDS011;3158;52.148;11.568;2022-07-29T21:04:10;2.10;;;2.05;;
6249;SDS011;3158;52.148;11.568;2022-07-29T21:09:11;2.90;;;2.35;;
6249;SDS011;3158;52.148;11.568;2022-07-29T21:14:12;2.55;;;1.65;;
6249;SDS011;3158;52.148;11.568;2022-07-29T21:19:40;5.28;;;2.05;;
6249;SDS011;3158;52.148;11.568;2022-07-29T21:24:41;2.28;;;2.03;;
6249;SDS011;3158;52.148;11.568;2022-07-29T21:29:42;2.35;;;2.00;;
6249;SDS011;3158;52.148;11.568;2022-07-29T21:34:43;1.98;;;1.77;;
6249;SDS011;3158;52.148;11.568;2022-07-29T21:39:44;5.85;;;2.20;;
6249;SDS011;3158;52.148;11.568;2022-07-29T21:44:45;5.15;;;1.88;;
6249;SDS011;3158;52.148;11.568;2022-07-29T21:49:46;1.70;;;1.60;;
6249;SDS011;3158;52.148;11.568;2022-07-29T21:54:48;1.73;;;1.65;;
6249;SDS011;3158;52.148;11.568;2022-07-29T21:59:49;1.75;;;1.60;;
6249;SDS011;3158;52.148;11.568;2022-07-29T22:04:50;4.20;;;1.90;;
6249;SDS011;3158;52.148;11.568;2022-07-29T22:09:51;3.95;;;1.73;;
6249;SDS011;3158;52.148;11.568;2022-07-29T22:14:52;6.28;;;1.70;;
6249;SDS011;3158;52.148;11.568;2022-07-29T22:19:53;1.52;;;1.42;;
6249;SDS011;3158;52.148;11.568;2022-07-29T22:24:54;2.08;;;1.30;;
6249;SDS011;3158;52.148;11.568;2022-07-29T22:29:55;1.55;;;1.30;;
6249;SDS011;3158;52.148;11.568;2022-07-29T22:34:56;2.30;;;1.50;;
6249;SDS011;3158;52.148;11.568;2022-07-29T22:39:57;1.10;;;1.02;;
6249;SDS011;3158;52.148;11.568;2022-07-29T22:44:58;1.48;;;1.23;;
6249;SDS011;3158;52.148;11.568;2022-07-29T22:50:00;2.67;;;1.55;;
6249;SDS011;3158;52.148;11.568;2022-07-29T22:55:01;3.47;;;1.52;;
6249;SDS011;3158;52.148;11.568;2022-07-29T23:00:03;1.52;;;1.35;;
6249;SDS011;3158;52.148;11.568;2022-07-29T23:05:05;3.65;;;1.33;;
6249;SDS011;3158;52.148;11.568;2022-07-29T23:10:08;1.73;;;1.50;;
6249;SDS011;3158;52.148;11.568;2022-07-29T23:15:09;7.68;;;2.10;;
6249;SDS011;3158;52.148;11.568;2022-07-29T23:20:10;9.98;;;1.48;;
6249;SDS011;3158;52.148;11.568;2022-07-29T23:25:11;2.05;;;1.60;;
6249;SDS011;3158;52.148;11.568;2022-07-29T23:30:12;2.60;;;1.15;;
6249;SDS011;3158;52.148;11.568;2022-07-29T23:35:13;6.03;;;1.58;;
6249;SDS011;3158;52.148;11.568;2022-07-29T23:40:15;1.85;;;1.50;;
6249;SDS011;3158;52.148;11.568;2022-07-29T23:45:16;2.47;;;1.20;;
6249;SDS011;3158;52.148;11.568;2022-07-29T23:50:17;3.47;;;1.20;;
6249;SDS011;3158;52.148;11.568;2022-07-29T23:55:18;2.45;;;1.42;;
